Main page
METAR-TAF:

METAR-TAF

Airports :

Abadeh Airport

Abadeh, Iran

latitude: 31-11N, longitude: 052-40E, elevation: 2004 m

Current weather observation

The report was made 1 hour and 8 minutes ago, at 08:00 UTC
Wind 4 kt from the Southeast
Temperature 10°C
Humidity 37%
Pressure 1023 hPa
Visibility 10 km or more
no clouds below 1500 m and no cumulonimbus

METAR: OISA 250800Z 14004KT CAVOK 10/M04 Q1023 A3021

Time: 12:38 (09:08 UTC)


TAF: missing

Weather observations and forecasts of more than 4000 airports (METAR and TAF reports).

The available stations are represented by yellow and red dots on the map.

Hover mouse over dot to see the name of the station.

Then click to see weather observations and forecasts.

To change the map : click on the green buttons with a black cross to zoom in, on the green button with a dash to zoom out, or on the green arrows for adjacent maps.


METAR-TAF: